Time;durP1;ratioP1;P1;durP2;ratioP2;P2;SDS_P1;SDS_P2;PMS_P1;PMS_P2;Temp;Humidity;BMP_temperature;BMP_pressure;BME280_temperature;BME280_humidity;BME280_pressure;Samples;Min_cycle;Max_cycle;Signal;HPM_P1;HPM_P2
2022/08/09 00:01:09;;;;;;;0.50;0.50;;;17.90;53.10;;;18.38;39.51;95715.25;5015542;28;20236;-78
2022/08/09 00:03:42;;;;;;;0.50;0.50;;;17.90;53.20;;;18.36;39.79;95717.31;5036950;28;20242;-78
2022/08/09 00:06:30;;;;;;;0.50;0.50;;;17.80;53.20;;;18.33;39.28;95715.09;5055934;28;20222;-78
2022/08/09 00:08:59;;;;;;;0.50;0.50;;;17.80;53.30;;;18.31;39.43;95715.31;5064945;28;20215;-78
2022/08/09 00:11:28;;;;;;;0.50;0.50;;;17.80;53.40;;;18.30;39.51;95724.31;5002127;28;20231;-78
2022/08/09 00:14:17;;;;;;;0.50;0.50;;;17.70;53.30;;;18.27;39.83;95718.63;5056877;28;20555;-78
2022/08/09 00:16:56;;;;;;;0.50;0.50;;;17.70;53.60;;;18.22;39.85;95714.81;5019009;28;20242;-78
2022/08/09 00:19:23;;;;;;;0.50;0.50;;;17.70;53.50;;;18.19;40.10;95720.53;5047284;28;20207;-78
2022/08/09 00:21:53;;;;;;;0.50;0.50;;;17.70;53.70;;;18.12;39.74;95713.69;5059069;28;20598;-78
2022/08/09 00:24:24;;;;;;;0.60;0.60;;;17.60;53.80;;;18.12;40.16;95708.38;5034193;28;20196;-78
2022/08/09 00:26:53;;;;;;;0.40;0.40;;;17.60;53.90;;;18.11;39.99;95720.03;5035224;28;20232;-78
2022/08/09 00:29:21;;;;;;;0.50;0.50;;;17.60;54.00;;;18.07;40.05;95719.66;5036361;28;20278;-78
2022/08/09 00:32:08;;;;;;;0.40;0.40;;;17.60;54.10;;;18.01;40.33;95721.31;5045877;28;20563;-78
2022/08/09 00:34:38;;;;;;;0.50;0.50;;;17.50;54.00;;;17.96;39.99;95723.84;5053281;28;20208;-78
2022/08/09 00:37:17;;;;;;;0.43;0.43;;;17.50;54.00;;;17.91;40.39;95719.13;5016666;28;20219;-78
2022/08/09 00:39:45;;;;;;;0.50;0.50;;;17.40;54.10;;;17.88;40.24;95724.06;5047175;28;20195;-78
2022/08/09 00:42:32;;;;;;;0.45;0.45;;;17.40;54.30;;;17.86;40.16;95720.84;5044721;28;20221;-78
2022/08/09 00:45:19;;;;;;;0.50;0.50;;;17.30;54.40;;;17.82;40.46;95724.94;5045390;28;20256;-77
2022/08/09 00:47:47;;;;;;;0.55;0.55;;;17.30;54.60;;;17.79;41.01;95722.75;5047986;28;20694;-78
2022/08/09 00:50:14;;;;;;;0.50;0.50;;;17.30;54.90;;;17.66;41.22;95707.72;5017923;28;20301;-78
2022/08/09 00:52:41;;;;;;;0.50;0.50;;;17.30;55.10;;;17.66;41.11;95719.13;5028986;28;20223;-78
2022/08/09 00:55:09;;;;;;;0.60;0.60;;;17.20;55.00;;;17.59;41.62;95711.25;5039879;28;20226;-79
2022/08/09 00:57:56;;;;;;;0.50;0.50;;;17.20;55.30;;;17.57;41.57;95712.50;5035880;28;20187;-78
2022/08/09 01:00:26;;;;;;;0.50;0.50;;;17.10;55.20;;;17.54;41.66;95721.69;5041709;28;20196;-79
2022/08/09 01:03:16;;;;;;;0.50;0.50;;;17.10;55.40;;;17.48;41.43;95711.13;5046937;28;20196;-78
2022/08/09 01:06:05;;;;;;;0.60;0.60;;;17.10;56.00;;;17.47;42.04;95712.97;5031409;28;20354;-78
2022/08/09 01:09:23;;;;;;;0.50;0.50;;;17.10;56.00;;;17.43;41.72;95704.63;5015454;28;20201;-78
2022/08/09 01:12:32;;;;;;;0.50;0.50;;;17.00;55.30;;;17.41;41.84;95706.69;5038188;28;20247;-78
2022/08/09 01:15:08;;;;;;;0.50;0.50;;;17.00;56.00;;;17.43;41.80;95711.75;5062569;28;20196;-78
2022/08/09 01:18:04;;;;;;;0.50;0.50;;;17.00;56.00;;;17.41;41.88;95713.84;5043980;28;20218;-77
2022/08/09 01:20:52;;;;;;;0.50;0.50;;;17.00;56.00;;;17.40;41.81;95720.16;5055066;28;20211;-78
2022/08/09 01:23:56;;;;;;;0.50;0.50;;;17.00;56.30;;;17.37;41.98;95716.09;5052722;28;20294;-78
2022/08/09 01:26:59;;;;;;;0.50;0.50;;;16.90;55.90;;;17.34;42.06;95710.41;5053800;28;20317;-78
2022/08/09 01:29:39;;;;;;;0.50;0.50;;;16.90;56.30;;;17.34;42.04;95721.03;5047350;28;20273;-79
2022/08/09 01:32:26;;;;;;;0.50;0.50;;;16.90;56.10;;;17.31;42.00;95711.66;5043223;28;20234;-78
2022/08/09 01:35:26;;;;;;;0.50;0.50;;;16.90;56.10;;;17.29;42.17;95709.22;5048994;28;20195;-77
2022/08/09 01:38:12;;;;;;;0.50;0.50;;;16.90;56.40;;;17.27;42.13;95703.31;5052699;28;20208;-78
2022/08/09 01:41:14;;;;;;;0.50;0.50;;;16.80;56.40;;;17.25;42.16;95709.88;5032630;28;20195;-78
2022/08/09 01:43:47;;;;;;;0.50;0.50;;;16.80;56.70;;;17.20;42.56;95707.84;5049125;28;20258;-78
2022/08/09 01:46:39;;;;;;;0.52;0.52;;;16.80;56.50;;;17.18;42.21;95712.53;5059105;28;20220;-78
2022/08/09 01:49:17;;;;;;;0.60;0.60;;;16.80;56.70;;;17.13;42.50;95713.19;5051707;28;20196;-78
2022/08/09 01:51:59;;;;;;;0.50;0.50;;;16.70;56.90;;;17.13;42.65;95713.19;5049695;28;20250;-78
2022/08/09 01:54:42;;;;;;;0.70;0.70;;;16.70;56.60;;;17.05;42.89;95705.50;5038442;28;20203;-78
2022/08/09 01:57:20;;;;;;;0.50;0.50;;;16.70;57.10;;;17.09;42.88;95712.00;5052118;28;20242;-78
2022/08/09 01:59:51;;;;;;;0.50;0.50;;;16.70;57.20;;;17.08;42.49;95718.31;5036897;28;20196;-78
2022/08/09 02:02:26;;;;;;;0.60;0.60;;;16.60;56.80;;;17.08;42.69;95714.88;5060128;28;20309;-78
2022/08/09 02:05:04;;;;;;;0.50;0.50;;;16.60;56.80;;;17.04;42.56;95705.69;5024611;28;20207;-78
2022/08/09 02:07:56;;;;;;;0.50;0.50;;;16.60;56.90;;;17.05;42.88;95713.47;5052915;28;20246;-78
2022/08/09 02:10:48;;;;;;;0.50;0.50;;;16.60;56.90;;;17.05;42.50;95716.09;5029126;28;20199;-78
2022/08/09 02:13:21;;;;;;;0.50;0.50;;;16.60;57.00;;;17.03;43.12;95706.72;5031456;28;20319;-78
2022/08/09 02:16:06;;;;;;;0.50;0.50;;;16.60;57.20;;;17.00;42.85;95704.50;5064797;28;20232;-78
2022/08/09 02:18:37;;;;;;;0.60;0.60;;;16.60;57.00;;;17.00;43.12;95712.47;5065509;28;20208;-78
2022/08/09 02:21:15;;;;;;;0.50;0.50;;;16.50;57.10;;;16.98;43.05;95706.53;5064589;28;20230;-78
2022/08/09 02:23:52;;;;;;;0.57;0.57;;;16.50;57.30;;;16.96;42.73;95712.88;5052126;28;20645;-78
2022/08/09 02:26:22;;;;;;;0.50;0.50;;;16.50;57.40;;;16.94;42.97;95709.63;5064569;28;20634;-78
2022/08/09 02:28:59;;;;;;;0.60;0.60;;;16.50;57.30;;;16.90;43.36;95707.59;5064628;28;20207;-78
2022/08/09 02:31:38;;;;;;;0.50;0.50;;;16.50;57.40;;;16.86;43.22;95715.16;5048613;28;20310;-78
2022/08/09 02:34:16;;;;;;;0.70;0.70;;;16.40;57.70;;;16.82;43.46;95711.31;5034214;28;20410;-78
2022/08/09 02:37:08;;;;;;;0.60;0.60;;;16.40;57.70;;;16.74;43.28;95704.38;5034534;28;20223;-78
2022/08/09 02:39:46;;;;;;;0.50;0.50;;;16.40;57.50;;;16.69;43.52;95696.28;5025247;28;20712;-77
2022/08/09 02:42:34;;;;;;;0.50;0.50;;;16.40;57.80;;;16.68;43.26;95707.88;5038161;28;20311;-78
2022/08/09 02:45:09;;;;;;;0.50;0.50;;;16.30;57.70;;;16.65;43.51;95714.41;5024074;28;20233;-78
2022/08/09 02:47:39;;;;;;;0.60;0.60;;;16.30;57.60;;;16.57;43.14;95709.34;5052143;28;20211;-78
2022/08/09 02:50:42;;;;;;;0.50;0.50;;;16.20;57.40;;;16.53;43.32;95709.97;5042207;28;20568;-78
2022/08/09 02:53:26;;;;;;;0.50;0.50;;;16.10;57.90;;;16.45;43.31;95716.31;5030369;28;20234;-77
2022/08/09 02:55:58;;;;;;;0.50;0.50;;;16.10;57.90;;;16.34;43.48;95707.19;5046140;28;20263;-78
2022/08/09 02:58:30;;;;;;;0.50;0.50;;;16.00;57.90;;;16.26;43.83;95704.75;5048901;28;20255;-78
2022/08/09 03:01:06;;;;;;;0.50;0.50;;;15.90;58.00;;;16.22;43.82;95708.84;5055828;28;20216;-78
2022/08/09 03:03:38;;;;;;;0.60;0.60;;;15.90;58.00;;;16.17;43.75;95712.13;5052968;28;20246;-78
2022/08/09 03:06:28;;;;;;;0.70;0.70;;;15.80;58.10;;;16.12;43.86;95704.00;5032286;28;20216;-78
2022/08/09 03:08:58;;;;;;;0.73;0.73;;;15.80;58.10;;;16.10;43.49;95706.03;5065696;28;20612;-78
2022/08/09 03:11:26;;;;;;;0.60;0.60;;;15.70;58.30;;;16.06;44.56;95710.13;5057658;28;20223;-78
2022/08/09 03:14:15;;;;;;;0.50;0.50;;;15.70;58.50;;;15.96;44.69;95706.03;5032900;28;20224;-78
2022/08/09 03:16:44;;;;;;;0.52;0.52;;;15.70;58.50;;;15.90;44.52;95706.88;5026799;28;20250;-78
2022/08/09 03:19:18;;;;;;;0.60;0.60;;;15.60;58.70;;;15.83;44.71;95708.72;5036125;28;20195;-76
2022/08/09 03:22:07;;;;;;;0.52;0.52;;;15.50;60.20;;;15.76;45.07;95713.16;5018399;28;20224;-78
2022/08/09 03:24:38;;;;;;;0.40;0.40;;;15.50;58.70;;;15.69;44.82;95718.47;5035974;28;20323;-78
2022/08/09 03:27:26;;;;;;;0.50;0.50;;;15.40;58.90;;;15.62;45.07;95715.00;5036331;28;20223;-78
2022/08/09 03:30:04;;;;;;;0.60;0.60;;;15.30;59.00;;;15.49;45.08;95713.16;5045662;28;20192;-77
2022/08/09 03:32:35;;;;;;;0.57;0.57;;;15.30;59.10;;;15.46;45.10;95713.56;5026207;28;20596;-77
2022/08/09 03:35:03;;;;;;;0.52;0.52;;;15.30;59.60;;;15.37;45.33;95716.41;5030660;28;20201;-78
2022/08/09 03:37:51;;;;;;;0.50;0.50;;;15.20;59.60;;;15.32;45.54;95710.91;5046919;28;20208;-78
2022/08/09 03:40:24;;;;;;;0.70;0.70;;;15.10;59.50;;;15.27;45.67;95713.38;5039684;28;20218;-78
2022/08/09 03:42:57;;;;;;;0.70;0.70;;;15.10;59.50;;;15.23;45.90;95706.84;5033681;28;20616;-78
2022/08/09 03:45:24;;;;;;;0.50;0.50;;;15.00;59.40;;;15.18;45.89;95709.28;5055404;28;20192;-78
2022/08/09 03:48:11;;;;;;;0.50;0.50;;;15.00;59.40;;;15.17;46.41;95710.28;5035813;28;20689;-78
2022/08/09 03:50:45;;;;;;;0.50;0.50;;;14.90;59.40;;;15.15;46.64;95712.34;5047034;28;20635;-78
2022/08/09 03:53:16;;;;;;;0.50;0.50;;;14.90;59.80;;;15.15;46.86;95714.97;5007695;28;20230;-78
2022/08/09 03:55:47;;;;;;;0.70;0.70;;;14.90;60.20;;;15.16;47.18;95722.69;5031880;28;20215;-78
2022/08/09 03:58:16;;;;;;;0.52;0.52;;;14.90;60.40;;;15.19;47.65;95711.69;4996923;28;20577;-78
2022/08/09 04:00:48;;;;;;;0.55;0.55;;;14.90;60.60;;;15.27;48.36;95713.38;5013818;28;20216;-78
2022/08/09 04:03:16;;;;;;;0.50;0.50;;;14.90;61.10;;;15.36;47.62;95713.97;5045022;28;20196;-78
2022/08/09 04:06:05;;;;;;;0.60;0.60;;;15.00;61.10;;;15.45;47.38;95719.88;5032827;28;20787;-78
2022/08/09 04:08:33;;;;;;;0.50;0.50;;;15.00;60.90;;;15.49;47.24;95726.38;5027702;28;20211;-79
2022/08/09 04:11:00;;;;;;;0.60;0.60;;;15.20;61.00;;;15.54;47.03;95721.31;5021081;28;20242;-78
2022/08/09 04:13:28;;;;;;;0.40;0.40;;;15.10;60.90;;;15.58;47.24;95722.53;5032143;28;20227;-77
2022/08/09 04:16:15;;;;;;;0.60;0.60;;;15.20;60.90;;;15.61;47.29;95722.13;5022980;28;20227;-77
2022/08/09 04:18:47;;;;;;;0.50;0.50;;;15.30;61.00;;;15.66;47.22;95726.78;5061027;28;20295;-78
2022/08/09 04:21:17;;;;;;;0.60;0.60;;;15.30;61.10;;;15.71;47.27;95731.47;5038195;28;20223;-78
2022/08/09 04:23:45;;;;;;;0.50;0.50;;;15.30;61.10;;;15.75;47.18;95720.28;5059829;28;20667;-78
2022/08/09 04:26:23;;;;;;;0.50;0.50;;;15.30;61.10;;;15.81;47.36;95724.75;5004907;28;20270;-78
2022/08/09 04:29:01;;;;;;;0.50;0.50;;;15.40;61.20;;;15.80;47.31;95712.53;5029696;28;20215;-79
2022/08/09 04:31:36;;;;;;;0.40;0.40;;;15.50;61.30;;;15.95;47.35;95728.25;5030356;28;20760;-79
2022/08/09 04:34:13;;;;;;;0.50;0.50;;;15.50;61.40;;;16.00;47.97;95724.97;5039954;28;20227;-78
2022/08/09 04:36:56;;;;;;;0.50;0.50;;;15.60;61.40;;;16.09;47.49;95730.88;5043997;28;20264;-79
2022/08/09 04:39:24;;;;;;;0.50;0.50;;;15.70;61.40;;;16.16;47.61;95732.50;5032266;28;20695;-77
2022/08/09 04:41:57;;;;;;;0.50;0.50;;;15.70;61.50;;;16.25;47.68;95729.63;5036445;28;20234;-77
2022/08/09 04:44:28;;;;;;;0.50;0.50;;;15.80;61.50;;;16.30;47.58;95722.69;5052664;28;20661;-79
2022/08/09 04:46:56;;;;;;;0.50;0.50;;;15.90;62.60;;;16.41;47.72;95726.50;5063321;28;20305;-78
2022/08/09 04:49:35;;;;;;;0.50;0.50;;;16.00;61.80;;;16.51;47.65;95736.66;5051758;28;20199;-78
2022/08/09 04:52:27;;;;;;;0.50;0.50;;;16.10;61.90;;;16.62;48.00;95735.22;5046913;28;20292;-78
2022/08/09 04:54:58;;;;;;;0.50;0.50;;;16.20;62.30;;;16.72;47.94;95737.41;5040569;28;20263;-79
2022/08/09 04:57:26;;;;;;;0.50;0.50;;;16.30;62.30;;;16.79;47.86;95728.41;5043808;28;20261;-78
2022/08/09 05:00:13;;;;;;;0.50;0.50;;;16.40;62.10;;;16.89;47.90;95727.97;5039388;28;20192;-79
2022/08/09 05:02:43;;;;;;;0.60;0.60;;;16.50;61.90;;;17.01;47.90;95722.03;5023013;28;20295;-79
2022/08/09 05:05:17;;;;;;;0.57;0.57;;;16.60;61.90;;;17.09;47.84;95727.91;5005399;28;20664;-78
2022/08/09 05:08:04;;;;;;;0.55;0.55;;;16.70;61.80;;;17.21;47.52;95722.75;5031411;28;20200;-78
2022/08/09 05:10:33;;;;;;;0.70;0.70;;;16.80;61.80;;;17.32;47.27;95723.91;5046463;28;20270;-78
2022/08/09 05:13:02;;;;;;;0.50;0.50;;;16.90;61.80;;;17.44;47.45;95724.84;5050892;28;20586;-78
2022/08/09 05:15:30;;;;;;;0.50;0.50;;;17.00;61.60;;;17.53;47.56;95724.56;5038171;28;20191;-78
2022/08/09 05:18:09;;;;;;;0.50;0.50;;;17.10;61.50;;;17.68;47.12;95732.22;5029116;28;20204;-78
2022/08/09 05:20:56;;;;;;;0.50;0.50;;;17.20;61.30;;;17.80;47.34;95735.78;5017576;28;20227;-78
2022/08/09 05:23:24;;;;;;;0.50;0.50;;;17.40;61.50;;;17.93;47.08;95740.16;5047746;28;20199;-78
2022/08/09 05:26:11;;;;;;;0.50;0.50;;;17.50;61.50;;;18.04;47.30;95736.84;5009698;28;20710;-78
2022/08/09 05:28:58;;;;;;;0.40;0.40;;;17.60;61.60;;;18.17;46.95;95743.84;5027631;28;20208;-79
2022/08/09 05:31:28;;;;;;;0.50;0.50;;;17.70;61.70;;;18.30;46.95;95745.56;5055823;28;20220;-78
2022/08/09 05:34:15;;;;;;;0.50;0.50;;;17.80;61.80;;;18.44;46.90;95748.09;5045671;28;20798;-78
2022/08/09 05:36:45;;;;;;;0.52;0.52;;;18.00;61.90;;;18.54;46.62;95745.72;5014511;28;20216;-78
2022/08/09 05:39:14;;;;;;;0.50;0.50;;;18.10;61.70;;;18.64;46.55;95746.03;4998529;28;20773;-78
2022/08/09 05:41:56;;;;;;;0.40;0.40;;;18.20;61.60;;;18.79;46.57;95750.94;5018066;28;20238;-78
2022/08/09 05:44:31;;;;;;;0.47;0.47;;;18.40;61.60;;;18.91;46.89;95750.19;5026278;28;20199;-79
2022/08/09 05:47:01;;;;;;;0.50;0.50;;;18.50;61.50;;;18.98;47.09;95750.97;4999218;28;20228;-79
2022/08/09 05:49:32;;;;;;;0.50;0.50;;;18.60;61.70;;;19.04;47.51;95753.53;5046225;28;20307;-79
2022/08/09 05:52:20;;;;;;;0.52;0.52;;;18.70;61.70;;;19.13;47.11;95748.72;5032787;28;20212;-79
2022/08/09 05:54:50;;;;;;;0.40;0.40;;;18.80;61.80;;;19.19;47.79;95747.81;5031963;28;20224;-79
2022/08/09 05:57:18;;;;;;;0.47;0.47;;;18.90;61.70;;;19.23;48.01;95750.84;5015623;28;20591;-78
2022/08/09 05:59:51;;;;;;;0.40;0.40;;;19.00;61.70;;;19.31;47.98;95755.03;5064461;28;20196;-79
2022/08/09 06:02:19;;;;;;;0.50;0.50;;;19.10;61.70;;;19.38;47.54;95761.06;5041578;28;20286;-79
2022/08/09 06:04:47;;;;;;;0.40;0.40;;;19.20;61.60;;;19.44;47.01;95757.50;5001745;28;20198;-79
2022/08/09 06:07:14;;;;;;;0.50;0.50;;;19.20;61.50;;;19.52;47.29;95754.50;5064640;28;20226;-78
2022/08/09 06:09:50;;;;;;;0.50;0.50;;;19.30;61.50;;;19.62;47.26;95759.28;5044809;28;20261;-78
2022/08/09 06:12:29;;;;;;;0.40;0.40;;;19.40;61.30;;;19.75;46.53;95757.44;5031417;28;20298;-80
2022/08/09 06:14:56;;;;;;;0.40;0.40;;;19.40;60.90;;;19.80;46.47;95758.41;5023653;28;20575;-79
2022/08/09 06:17:28;;;;;;;0.40;0.40;;;19.50;61.00;;;19.97;46.61;95757.75;5065490;28;20877;-78
2022/08/09 06:20:08;;;;;;;0.50;0.50;;;19.60;60.90;;;20.10;46.79;95762.03;5017663;28;20581;-77
2022/08/09 06:22:35;;;;;;;0.50;0.50;;;19.70;60.70;;;20.20;45.79;95756.13;5030733;28;20221;-77
2022/08/09 06:25:04;;;;;;;0.40;0.40;;;19.90;60.80;;;20.27;46.09;95749.63;5056274;28;20208;-79
2022/08/09 06:27:38;;;;;;;0.50;0.50;;;20.00;60.70;;;20.40;45.68;95756.59;5048800;28;20223;-78
2022/08/09 06:30:10;;;;;;;0.40;0.40;;;20.10;60.50;;;20.53;45.69;95760.88;5016635;28;20188;-78
2022/08/09 06:32:43;;;;;;;0.40;0.40;;;20.20;60.50;;;20.63;45.85;95761.09;5015004;28;20218;-79
2022/08/09 06:35:30;;;;;;;0.43;0.43;;;20.30;60.70;;;20.75;45.21;95758.44;5003488;28;20287;-78
2022/08/09 06:38:18;;;;;;;0.40;0.40;;;20.40;60.30;;;20.89;45.03;95761.63;5042597;28;20205;-78
2022/08/09 06:40:58;;;;;;;0.40;0.40;;;20.50;60.20;;;21.02;45.13;95765.06;5040584;28;20246;-78
2022/08/09 06:43:26;;;;;;;0.40;0.40;;;20.60;60.20;;;21.14;45.12;95763.19;5017725;28;20195;-78
2022/08/09 06:46:01;;;;;;;0.35;0.35;;;20.80;60.20;;;21.27;45.35;95759.44;5064452;28;20705;-77
2022/08/09 06:48:36;;;;;;;0.40;0.40;;;20.90;60.20;;;21.39;45.09;95754.03;5033499;28;20311;-79
2022/08/09 06:51:12;;;;;;;0.40;0.40;;;21.00;60.00;;;21.52;44.97;95756.41;5066517;28;20220;-79
2022/08/09 06:53:40;;;;;;;0.40;0.40;;;21.10;60.00;;;21.63;45.07;95765.44;5016991;28;20232;-79
2022/08/09 06:56:09;;;;;;;0.38;0.38;;;21.30;59.90;;;21.74;44.47;95759.22;5061480;28;20229;-78
2022/08/09 06:58:38;;;;;;;0.40;0.40;;;21.30;59.30;;;21.88;43.73;95762.38;5051192;28;20647;-78
2022/08/09 07:01:25;;;;;;;0.40;0.40;;;21.50;59.00;;;22.02;43.81;95765.53;5043426;28;20225;-78
2022/08/09 07:04:02;;;;;;;0.40;0.40;;;21.60;58.80;;;22.13;43.90;95763.00;5062420;28;20297;-79
2022/08/09 07:06:30;;;;;;;0.40;0.40;;;21.70;58.90;;;22.24;43.55;95762.13;5025031;28;20216;-78
2022/08/09 07:08:57;;;;;;;0.40;0.40;;;21.90;58.60;;;22.35;43.46;95763.88;5036464;28;20202;-79
2022/08/09 07:11:26;;;;;;;0.40;0.40;;;22.00;58.30;;;22.45;43.08;95765.09;5035658;28;20226;-80
2022/08/09 07:14:16;;;;;;;0.40;0.40;;;22.10;58.00;;;22.53;42.78;95770.03;4996187;28;20222;-79
2022/08/09 07:16:53;;;;;;;0.40;0.40;;;22.20;58.00;;;22.64;42.71;95768.31;5007979;28;20742;-78
2022/08/09 07:19:24;;;;;;;0.40;0.40;;;22.30;58.00;;;22.73;42.55;95774.84;5063150;28;20731;-79
2022/08/09 07:21:53;;;;;;;0.30;0.30;;;22.40;57.60;;;22.82;42.43;95781.38;5031310;28;20290;-79
2022/08/09 07:24:29;;;;;;;0.30;0.30;;;22.50;57.50;;;22.90;42.88;95773.97;5034482;28;20208;-79
2022/08/09 07:27:12;;;;;;;0.40;0.40;;;22.60;57.50;;;22.98;42.49;95773.56;5031123;28;20282;-81
2022/08/09 07:30:01;;;;;;;0.30;0.30;;;22.60;57.40;;;23.10;42.69;95779.56;5051074;28;20204;-79
2022/08/09 07:32:29;;;;;;;0.40;0.40;;;22.70;57.30;;;23.18;42.27;95779.19;5046533;28;20208;-79
2022/08/09 07:35:07;;;;;;;0.35;0.35;;;22.90;57.10;;;23.27;41.92;95776.06;5029394;28;20229;-78
2022/08/09 07:37:40;;;;;;;0.40;0.40;;;22.90;56.80;;;23.36;41.86;95776.41;5042120;28;20213;-80
2022/08/09 07:40:16;;;;;;;0.40;0.40;;;23.00;56.70;;;23.42;41.54;95773.53;4997679;28;20209;-79
2022/08/09 07:42:57;;;;;;;0.30;0.30;;;23.10;56.10;;;23.52;41.47;95780.06;5034270;28;20226;-79
2022/08/09 07:45:29;;;;;;;0.30;0.30;;;23.20;56.10;;;23.61;41.58;95786.59;5035817;28;20211;-80
2022/08/09 07:48:09;;;;;;;0.22;0.22;;;23.30;56.10;;;23.69;41.15;95779.94;5022095;28;20656;-80
2022/08/09 07:50:59;;;;;;;0.40;0.40;;;23.40;56.10;;;23.78;40.53;95779.22;5037600;28;20225;-80
2022/08/09 07:53:49;;;;;;;0.30;0.30;;;23.50;56.00;;;23.88;40.92;95775.03;5018280;28;20220;-78
2022/08/09 07:56:34;;;;;;;0.40;0.40;;;23.60;56.00;;;24.02;40.39;95778.13;5046472;28;20214;-77
2022/08/09 07:59:06;;;;;;;0.40;0.40;;;23.70;55.60;;;24.11;40.52;95784.63;5065249;28;20207;-78
2022/08/09 08:01:54;;;;;;;0.60;0.60;;;23.80;55.60;;;24.17;40.69;95777.41;5043909;28;20226;-79
2022/08/09 08:04:22;;;;;;;0.30;0.30;;;23.90;55.60;;;24.29;40.32;95778.03;5044676;28;20205;-79
2022/08/09 08:06:58;;;;;;;0.30;0.30;;;24.00;55.30;;;24.41;40.49;95777.84;5034225;28;20595;-79
2022/08/09 08:09:45;;;;;;;0.30;0.30;;;24.10;55.60;;;24.52;40.25;95778.72;5014933;28;20676;-79
2022/08/09 08:12:21;;;;;;;0.30;0.30;;;24.30;55.40;;;24.62;40.08;95773.44;5049313;28;20262;-80
2022/08/09 08:15:04;;;;;;;0.30;0.30;;;24.40;54.90;;;24.79;40.30;95778.63;5049592;28;20232;-80
2022/08/09 08:17:33;;;;;;;0.50;0.50;;;24.50;55.00;;;24.89;39.81;95770.63;5042283;28;20216;-78
2022/08/09 08:20:25;;;;;;;0.50;0.50;;;24.60;54.70;;;25.01;39.35;95767.75;5024337;28;20200;-78
2022/08/09 08:22:59;;;;;;;0.30;0.30;;;24.80;54.30;;;25.10;38.97;95765.34;5043190;28;20274;-79
2022/08/09 08:25:34;;;;;;;0.30;0.30;;;24.90;54.00;;;25.21;39.17;95771.56;4996102;28;20369;-79
2022/08/09 08:28:12;;;;;;;0.32;0.32;;;24.90;54.00;;;25.33;38.49;95777.50;5031715;28;20192;-79
2022/08/09 08:30:43;;;;;;;0.40;0.40;;;25.10;53.50;;;25.46;38.50;95778.88;5016944;28;20199;-80
2022/08/09 08:33:13;;;;;;;0.30;0.30;;;25.20;53.10;;;25.60;38.40;95783.75;5018961;28;20672;-79
2022/08/09 08:35:52;;;;;;;0.50;0.50;;;25.40;52.90;;;25.69;37.26;95779.47;5050283;28;20259;-79
2022/08/09 08:38:29;;;;;;;0.30;0.30;;;25.50;52.00;;;25.76;37.71;95771.97;5033313;28;20201;-80
2022/08/09 08:40:58;;;;;;;0.30;0.30;;;25.60;52.00;;;25.84;37.75;95766.06;5013555;28;20258;-79
2022/08/09 08:43:26;;;;;;;0.28;0.28;;;25.70;52.10;;;25.94;37.67;95772.50;5062181;28;20209;-79
2022/08/09 08:46:02;;;;;;;0.22;0.22;;;25.70;52.20;;;26.09;37.72;95766.38;5014946;28;20233;-79
2022/08/09 08:48:51;;;;;;;0.30;0.30;;;25.80;51.90;;;26.20;37.44;95768.75;5004285;28;20682;-79
2022/08/09 08:51:23;;;;;;;0.30;0.30;;;26.00;51.90;;;26.37;37.65;95768.47;5015104;28;20245;-80
2022/08/09 08:53:53;;;;;;;0.30;0.30;;;26.10;52.00;;;26.53;37.04;95766.56;5014195;28;20240;-79
2022/08/09 08:56:34;;;;;;;0.30;0.30;;;26.20;51.60;;;26.64;36.45;95769.22;5028895;28;20227;-79
2022/08/09 08:59:08;;;;;;;0.50;0.50;;;26.40;50.60;;;26.67;36.49;95768.66;5029592;28;20235;-79
2022/08/09 09:01:48;;;;;;;0.30;0.30;;;26.50;50.30;;;26.64;36.17;95770.03;5047539;28;20238;-79
2022/08/09 09:04:28;;;;;;;0.30;0.30;;;26.50;50.30;;;26.60;36.67;95763.59;5045161;28;20248;-79
2022/08/09 09:07:02;;;;;;;0.30;0.30;;;26.50;50.40;;;26.52;36.44;95767.66;5046009;28;20294;-78
2022/08/09 09:09:32;;;;;;;0.30;0.30;;;26.50;50.00;;;26.47;36.81;95775.72;5029780;28;20226;-79
2022/08/09 09:12:25;;;;;;;0.30;0.30;;;26.40;50.40;;;26.41;36.80;95776.81;5030194;28;20231;-79
2022/08/09 09:14:58;;;;;;;0.30;0.30;;;26.30;50.40;;;26.33;36.28;95771.97;5029219;28;20230;-80
2022/08/09 09:17:25;;;;;;;0.30;0.30;;;26.30;50.00;;;26.29;36.50;95768.22;5026860;28;20697;-80
2022/08/09 09:20:14;;;;;;;0.40;0.40;;;26.20;50.70;;;26.31;36.61;95774.94;4998973;28;20202;-80
2022/08/09 09:22:58;;;;;;;0.30;0.30;;;26.20;50.80;;;26.40;36.68;95769.00;5011017;28;20689;-79
2022/08/09 09:25:48;;;;;;;0.30;0.30;;;26.20;51.10;;;26.48;35.86;95755.00;5014812;28;20459;-80
2022/08/09 09:28:33;;;;;;;0.32;0.32;;;26.30;49.70;;;26.68;35.89;95770.28;5021794;28;20291;-80
2022/08/09 09:31:22;;;;;;;0.28;0.28;;;26.40;49.90;;;26.83;35.71;95772.16;5034131;28;20227;-80
2022/08/09 09:34:13;;;;;;;0.20;0.20;;;26.60;49.70;;;27.01;35.82;95762.66;5019721;28;20708;-80
2022/08/09 09:36:45;;;;;;;0.28;0.28;;;26.80;49.30;;;27.17;35.49;95768.78;5029585;28;20227;-80
2022/08/09 09:39:27;;;;;;;0.30;0.30;;;27.00;49.20;;;27.28;35.16;95770.38;5014957;28;20214;-80
2022/08/09 09:42:26;;;;;;;0.30;0.30;;;27.10;49.00;;;27.34;35.18;95779.19;5027082;28;20234;-79
2022/08/09 09:45:05;;;;;;;0.30;0.30;;;27.20;48.90;;;27.37;35.22;95775.97;5015147;28;20243;-80
2022/08/09 09:47:34;;;;;;;0.30;0.30;;;27.30;49.80;;;27.35;34.78;95769.25;5030776;28;20233;-80
2022/08/09 09:50:42;;;;;;;0.20;0.20;;;27.30;48.20;;;27.26;34.87;95767.13;5041112;28;20210;-80
2022/08/09 09:53:21;;;;;;;0.30;0.30;;;27.30;48.40;;;27.23;34.88;95767.66;5054104;28;20207;-80
2022/08/09 09:56:08;;;;;;;0.30;0.30;;;27.20;48.20;;;27.14;34.78;95767.44;5011499;28;20385;-80
2022/08/09 09:58:56;;;;;;;0.30;0.30;;;27.20;48.10;;;27.03;34.98;95768.59;5067629;28;20616;-81
2022/08/09 10:01:23;;;;;;;0.30;0.30;;;27.10;48.10;;;26.94;35.03;95775.59;5050618;28;20215;-80
2022/08/09 10:04:19;;;;;;;0.30;0.30;;;27.00;48.00;;;26.80;34.94;95770.81;5034295;28;20209;-80
2022/08/09 10:06:56;;;;;;;0.30;0.30;;;26.80;48.00;;;26.69;34.86;95775.38;5041042;28;20252;-80
2022/08/09 10:09:24;;;;;;;0.30;0.30;;;26.70;47.80;;;26.63;34.77;95768.41;5067186;28;20199;-80
2022/08/09 10:11:59;;;;;;;0.30;0.30;;;26.60;48.30;;;26.61;34.49;95767.06;5033697;28;20218;-81
2022/08/09 10:14:46;;;;;;;0.30;0.30;;;26.50;47.70;;;26.54;34.90;95770.06;5034723;28;20583;-80
2022/08/09 10:17:17;;;;;;;0.30;0.30;;;26.50;48.10;;;26.51;34.93;95759.84;5035060;28;20215;-80
2022/08/09 10:20:07;;;;;;;0.30;0.30;;;26.50;48.00;;;26.47;34.77;95764.94;5047827;28;20187;-81
2022/08/09 10:22:41;;;;;;;0.30;0.30;;;26.40;48.10;;;26.43;35.15;95757.72;5035519;28;20229;-80
2022/08/09 10:25:10;;;;;;;0.30;0.30;;;26.30;48.30;;;26.40;35.01;95752.88;5048976;28;20690;-80
2022/08/09 10:27:43;;;;;;;0.30;0.30;;;26.30;48.40;;;26.39;35.24;95759.31;5066468;28;20222;-80
2022/08/09 10:30:26;;;;;;;0.30;0.30;;;26.30;50.10;;;26.38;34.93;95755.84;5048682;28;20197;-80
2022/08/09 10:33:14;;;;;;;0.30;0.30;;;26.20;48.40;;;26.39;34.56;95757.47;5034458;28;20194;-80
2022/08/09 10:36:07;;;;;;;0.30;0.30;;;26.20;48.40;;;26.41;35.19;95751.81;5065204;28;20332;-80
2022/08/09 10:38:41;;;;;;;0.30;0.30;;;26.20;48.60;;;26.47;35.07;95748.81;5021173;28;20209;-80
2022/08/09 10:41:23;;;;;;;0.30;0.30;;;26.30;48.30;;;26.57;35.11;95742.59;5038917;28;20236;-80
2022/08/09 10:43:51;;;;;;;0.22;0.22;;;26.30;48.90;;;26.64;34.72;95736.94;5001190;28;20194;-81
2022/08/09 10:46:42;;;;;;;0.30;0.30;;;26.40;48.70;;;26.87;34.45;95742.78;5049847;28;20223;-80
2022/08/09 10:50:05;;;;;;;0.20;0.20;;;26.50;48.60;;;27.08;34.51;95743.53;5047770;28;20198;-80
2022/08/09 10:53:03;;;;;;;0.30;0.30;;;26.70;48.80;;;27.29;34.34;95741.53;5031336;28;20224;-79
2022/08/09 10:55:36;;;;;;;0.40;0.40;;;26.90;48.50;;;27.54;34.59;95740.59;5035161;28;20288;-79
2022/08/09 10:58:32;;;;;;;0.30;0.30;;;27.10;48.10;;;27.79;34.35;95733.41;5042124;28;20207;-80
2022/08/09 11:01:01;;;;;;;0.20;0.20;;;27.40;48.00;;;28.01;33.74;95732.16;5033636;28;20326;-80
2022/08/09 11:04:07;;;;;;;0.30;0.30;;;27.60;47.60;;;28.15;33.77;95745.81;5045509;28;20206;-81
2022/08/09 11:06:57;;;;;;;0.30;0.30;;;27.80;47.30;;;28.23;33.35;95737.91;5024266;28;20630;-79